sensor_id;sensor_type;location;lat;lon;timestamp;P1;durP1;ratioP1;P2;durP2;ratioP2
17175;SDS011;8703;48.996;9.594;2022-09-21T00:00:25;9.10;;;4.00;;
17175;SDS011;8703;48.996;9.594;2022-09-21T00:02:54;6.53;;;3.43;;
17175;SDS011;8703;48.996;9.594;2022-09-21T00:05:22;6.63;;;2.60;;
17175;SDS011;8703;48.996;9.594;2022-09-21T00:07:50;5.20;;;2.60;;
17175;SDS011;8703;48.996;9.594;2022-09-21T00:10:18;5.20;;;2.80;;
17175;SDS011;8703;48.996;9.594;2022-09-21T00:12:45;11.40;;;4.13;;
17175;SDS011;8703;48.996;9.594;2022-09-21T00:15:13;10.57;;;3.63;;
17175;SDS011;8703;48.996;9.594;2022-09-21T00:17:44;5.50;;;2.67;;
17175;SDS011;8703;48.996;9.594;2022-09-21T00:20:11;5.50;;;2.87;;
17175;SDS011;8703;48.996;9.594;2022-09-21T00:22:39;9.17;;;3.37;;
17175;SDS011;8703;48.996;9.594;2022-09-21T00:25:08;9.57;;;3.40;;
17175;SDS011;8703;48.996;9.594;2022-09-21T00:27:35;6.03;;;3.60;;
17175;SDS011;8703;48.996;9.594;2022-09-21T00:30:03;9.20;;;3.53;;
17175;SDS011;8703;48.996;9.594;2022-09-21T00:32:32;9.43;;;3.80;;
17175;SDS011;8703;48.996;9.594;2022-09-21T00:35:03;12.37;;;4.30;;
17175;SDS011;8703;48.996;9.594;2022-09-21T00:37:32;7.13;;;3.47;;
17175;SDS011;8703;48.996;9.594;2022-09-21T00:39:59;6.53;;;3.57;;
17175;SDS011;8703;48.996;9.594;2022-09-21T00:42:28;5.00;;;2.90;;
17175;SDS011;8703;48.996;9.594;2022-09-21T00:44:56;7.87;;;3.03;;
17175;SDS011;8703;48.996;9.594;2022-09-21T00:47:25;7.07;;;3.30;;
17175;SDS011;8703;48.996;9.594;2022-09-21T00:49:57;5.83;;;3.20;;
17175;SDS011;8703;48.996;9.594;2022-09-21T00:52:27;6.57;;;2.50;;
17175;SDS011;8703;48.996;9.594;2022-09-21T00:54:56;6.37;;;2.90;;
17175;SDS011;8703;48.996;9.594;2022-09-21T00:57:26;3.93;;;2.77;;
17175;SDS011;8703;48.996;9.594;2022-09-21T00:59:56;3.80;;;2.40;;
17175;SDS011;8703;48.996;9.594;2022-09-21T01:02:26;4.93;;;2.50;;
17175;SDS011;8703;48.996;9.594;2022-09-21T01:04:53;4.83;;;2.60;;
17175;SDS011;8703;48.996;9.594;2022-09-21T01:07:22;2.90;;;2.30;;
17175;SDS011;8703;48.996;9.594;2022-09-21T01:09:53;3.97;;;2.63;;
17175;SDS011;8703;48.996;9.594;2022-09-21T01:12:24;4.57;;;2.40;;
17175;SDS011;8703;48.996;9.594;2022-09-21T01:15:04;4.33;;;2.30;;
17175;SDS011;8703;48.996;9.594;2022-09-21T01:17:39;4.60;;;2.47;;
17175;SDS011;8703;48.996;9.594;2022-09-21T01:20:23;3.73;;;2.30;;
17175;SDS011;8703;48.996;9.594;2022-09-21T01:23:14;3.00;;;2.10;;
17175;SDS011;8703;48.996;9.594;2022-09-21T01:26:02;5.70;;;2.60;;
17175;SDS011;8703;48.996;9.594;2022-09-21T01:28:36;4.73;;;2.40;;
17175;SDS011;8703;48.996;9.594;2022-09-21T01:31:24;3.27;;;2.20;;
17175;SDS011;8703;48.996;9.594;2022-09-21T01:33:54;2.90;;;2.13;;
17175;SDS011;8703;48.996;9.594;2022-09-21T01:36:26;3.40;;;2.30;;
17175;SDS011;8703;48.996;9.594;2022-09-21T01:38:56;3.73;;;2.30;;
17175;SDS011;8703;48.996;9.594;2022-09-21T01:41:26;4.07;;;2.47;;
17175;SDS011;8703;48.996;9.594;2022-09-21T01:43:57;3.33;;;2.10;;
17175;SDS011;8703;48.996;9.594;2022-09-21T01:46:32;4.10;;;2.10;;
17175;SDS011;8703;48.996;9.594;2022-09-21T01:49:00;3.70;;;2.40;;
17175;SDS011;8703;48.996;9.594;2022-09-21T01:51:30;3.93;;;2.17;;
17175;SDS011;8703;48.996;9.594;2022-09-21T01:54:00;3.53;;;2.50;;
17175;SDS011;8703;48.996;9.594;2022-09-21T01:56:29;3.77;;;2.60;;
17175;SDS011;8703;48.996;9.594;2022-09-21T01:59:05;4.13;;;2.60;;
17175;SDS011;8703;48.996;9.594;2022-09-21T02:01:36;4.73;;;2.40;;
17175;SDS011;8703;48.996;9.594;2022-09-21T02:04:07;3.77;;;2.00;;
17175;SDS011;8703;48.996;9.594;2022-09-21T02:06:36;3.77;;;2.80;;
17175;SDS011;8703;48.996;9.594;2022-09-21T02:09:05;4.13;;;2.77;;
17175;SDS011;8703;48.996;9.594;2022-09-21T02:11:33;4.27;;;3.87;;
17175;SDS011;8703;48.996;9.594;2022-09-21T02:14:11;4.50;;;3.10;;
17175;SDS011;8703;48.996;9.594;2022-09-21T02:16:42;4.47;;;2.87;;
17175;SDS011;8703;48.996;9.594;2022-09-21T02:19:13;4.90;;;2.43;;
17175;SDS011;8703;48.996;9.594;2022-09-21T02:21:55;4.40;;;2.90;;
17175;SDS011;8703;48.996;9.594;2022-09-21T02:24:32;4.40;;;2.70;;
17175;SDS011;8703;48.996;9.594;2022-09-21T02:27:04;4.27;;;2.70;;
17175;SDS011;8703;48.996;9.594;2022-09-21T02:29:40;6.30;;;2.60;;
17175;SDS011;8703;48.996;9.594;2022-09-21T02:32:15;5.00;;;3.10;;
17175;SDS011;8703;48.996;9.594;2022-09-21T02:34:48;6.80;;;3.00;;
17175;SDS011;8703;48.996;9.594;2022-09-21T02:37:18;4.37;;;2.70;;
17175;SDS011;8703;48.996;9.594;2022-09-21T02:39:51;4.33;;;2.80;;
17175;SDS011;8703;48.996;9.594;2022-09-21T02:42:23;4.73;;;3.90;;
17175;SDS011;8703;48.996;9.594;2022-09-21T02:44:56;6.83;;;4.50;;
17175;SDS011;8703;48.996;9.594;2022-09-21T02:47:27;5.23;;;3.30;;
17175;SDS011;8703;48.996;9.594;2022-09-21T02:50:00;5.93;;;3.50;;
17175;SDS011;8703;48.996;9.594;2022-09-21T02:52:30;5.90;;;2.40;;
17175;SDS011;8703;48.996;9.594;2022-09-21T02:54:59;5.77;;;3.00;;
17175;SDS011;8703;48.996;9.594;2022-09-21T02:57:27;4.47;;;3.37;;
17175;SDS011;8703;48.996;9.594;2022-09-21T02:59:56;5.60;;;3.80;;
17175;SDS011;8703;48.996;9.594;2022-09-21T03:02:24;5.03;;;2.60;;
17175;SDS011;8703;48.996;9.594;2022-09-21T03:05:02;3.80;;;2.53;;
17175;SDS011;8703;48.996;9.594;2022-09-21T03:07:30;2.93;;;2.60;;
17175;SDS011;8703;48.996;9.594;2022-09-21T03:09:57;4.40;;;2.70;;
17175;SDS011;8703;48.996;9.594;2022-09-21T03:12:25;3.70;;;2.50;;
17175;SDS011;8703;48.996;9.594;2022-09-21T03:14:52;3.40;;;2.43;;
17175;SDS011;8703;48.996;9.594;2022-09-21T03:17:21;4.10;;;2.30;;
17175;SDS011;8703;48.996;9.594;2022-09-21T03:19:49;3.43;;;2.60;;
17175;SDS011;8703;48.996;9.594;2022-09-21T03:22:19;3.83;;;2.43;;
17175;SDS011;8703;48.996;9.594;2022-09-21T03:24:46;7.63;;;2.87;;
17175;SDS011;8703;48.996;9.594;2022-09-21T03:27:14;3.97;;;2.60;;
17175;SDS011;8703;48.996;9.594;2022-09-21T03:29:42;3.10;;;2.50;;
17175;SDS011;8703;48.996;9.594;2022-09-21T03:32:10;4.10;;;2.43;;
17175;SDS011;8703;48.996;9.594;2022-09-21T03:34:39;5.30;;;2.50;;
17175;SDS011;8703;48.996;9.594;2022-09-21T03:37:07;7.00;;;3.50;;
17175;SDS011;8703;48.996;9.594;2022-09-21T03:39:35;29.17;;;14.93;;
17175;SDS011;8703;48.996;9.594;2022-09-21T03:42:03;30.00;;;14.93;;
17175;SDS011;8703;48.996;9.594;2022-09-21T03:44:31;7.97;;;4.77;;
17175;SDS011;8703;48.996;9.594;2022-09-21T03:46:58;5.60;;;3.00;;
17175;SDS011;8703;48.996;9.594;2022-09-21T03:49:26;4.17;;;3.23;;
17175;SDS011;8703;48.996;9.594;2022-09-21T03:51:54;6.70;;;4.20;;
17175;SDS011;8703;48.996;9.594;2022-09-21T03:54:23;29.93;;;14.97;;
17175;SDS011;8703;48.996;9.594;2022-09-21T03:56:50;10.57;;;6.23;;
17175;SDS011;8703;48.996;9.594;2022-09-21T03:59:17;4.73;;;3.00;;
17175;SDS011;8703;48.996;9.594;2022-09-21T04:01:45;8.23;;;4.50;;
17175;SDS011;8703;48.996;9.594;2022-09-21T04:04:12;13.33;;;6.70;;
17175;SDS011;8703;48.996;9.594;2022-09-21T04:06:40;9.27;;;5.43;;
17175;SDS011;8703;48.996;9.594;2022-09-21T04:09:11;5.53;;;3.67;;
17175;SDS011;8703;48.996;9.594;2022-09-21T04:11:38;7.53;;;3.87;;
17175;SDS011;8703;48.996;9.594;2022-09-21T04:14:06;5.33;;;3.83;;
17175;SDS011;8703;48.996;9.594;2022-09-21T04:16:34;3.77;;;3.00;;
17175;SDS011;8703;48.996;9.594;2022-09-21T04:19:02;5.03;;;2.60;;
17175;SDS011;8703;48.996;9.594;2022-09-21T04:21:29;3.70;;;2.50;;
17175;SDS011;8703;48.996;9.594;2022-09-21T04:23:58;8.77;;;3.80;;
17175;SDS011;8703;48.996;9.594;2022-09-21T04:26:28;4.63;;;2.73;;
17175;SDS011;8703;48.996;9.594;2022-09-21T04:28:56;3.63;;;2.63;;
17175;SDS011;8703;48.996;9.594;2022-09-21T04:31:24;4.00;;;3.13;;
17175;SDS011;8703;48.996;9.594;2022-09-21T04:33:53;4.93;;;3.00;;
17175;SDS011;8703;48.996;9.594;2022-09-21T04:36:22;5.53;;;3.00;;
17175;SDS011;8703;48.996;9.594;2022-09-21T04:38:50;5.27;;;2.97;;
17175;SDS011;8703;48.996;9.594;2022-09-21T04:41:18;5.97;;;2.87;;
17175;SDS011;8703;48.996;9.594;2022-09-21T04:43:47;5.53;;;4.03;;
17175;SDS011;8703;48.996;9.594;2022-09-21T04:46:16;8.27;;;4.80;;
17175;SDS011;8703;48.996;9.594;2022-09-21T04:48:44;9.83;;;5.57;;
17175;SDS011;8703;48.996;9.594;2022-09-21T04:51:12;12.33;;;7.50;;
17175;SDS011;8703;48.996;9.594;2022-09-21T04:53:40;13.90;;;8.60;;
17175;SDS011;8703;48.996;9.594;2022-09-21T04:56:08;9.63;;;5.93;;
17175;SDS011;8703;48.996;9.594;2022-09-21T04:58:38;6.50;;;4.40;;
17175;SDS011;8703;48.996;9.594;2022-09-21T05:01:07;23.80;;;10.97;;
17175;SDS011;8703;48.996;9.594;2022-09-21T05:03:34;20.17;;;11.20;;
17175;SDS011;8703;48.996;9.594;2022-09-21T05:06:01;24.07;;;12.43;;
17175;SDS011;8703;48.996;9.594;2022-09-21T05:08:29;13.87;;;7.47;;
17175;SDS011;8703;48.996;9.594;2022-09-21T05:11:19;27.27;;;15.57;;
17175;SDS011;8703;48.996;9.594;2022-09-21T05:13:47;37.23;;;22.33;;
17175;SDS011;8703;48.996;9.594;2022-09-21T05:16:17;40.13;;;26.03;;
17175;SDS011;8703;48.996;9.594;2022-09-21T05:18:44;25.80;;;17.17;;
17175;SDS011;8703;48.996;9.594;2022-09-21T05:21:12;30.37;;;15.27;;
17175;SDS011;8703;48.996;9.594;2022-09-21T05:23:40;73.03;;;28.53;;
17175;SDS011;8703;48.996;9.594;2022-09-21T05:26:08;45.40;;;27.67;;
17175;SDS011;8703;48.996;9.594;2022-09-21T05:28:35;38.40;;;23.33;;
17175;SDS011;8703;48.996;9.594;2022-09-21T05:31:04;23.03;;;13.63;;
17175;SDS011;8703;48.996;9.594;2022-09-21T05:33:39;26.07;;;15.97;;
17175;SDS011;8703;48.996;9.594;2022-09-21T05:36:10;19.93;;;11.87;;
17175;SDS011;8703;48.996;9.594;2022-09-21T05:38:48;22.13;;;12.17;;
17175;SDS011;8703;48.996;9.594;2022-09-21T05:41:15;16.13;;;9.27;;
17175;SDS011;8703;48.996;9.594;2022-09-21T05:43:43;17.67;;;10.00;;
17175;SDS011;8703;48.996;9.594;2022-09-21T05:46:13;21.07;;;8.63;;
17175;SDS011;8703;48.996;9.594;2022-09-21T05:48:50;12.23;;;8.20;;
17175;SDS011;8703;48.996;9.594;2022-09-21T05:51:25;24.93;;;20.67;;
17175;SDS011;8703;48.996;9.594;2022-09-21T05:53:56;18.30;;;12.13;;
17175;SDS011;8703;48.996;9.594;2022-09-21T05:56:30;31.37;;;19.03;;
17175;SDS011;8703;48.996;9.594;2022-09-21T05:59:06;57.50;;;38.80;;
17175;SDS011;8703;48.996;9.594;2022-09-21T06:01:45;37.27;;;24.70;;
17175;SDS011;8703;48.996;9.594;2022-09-21T06:04:23;21.17;;;14.53;;
17175;SDS011;8703;48.996;9.594;2022-09-21T06:06:50;15.47;;;11.70;;
17175;SDS011;8703;48.996;9.594;2022-09-21T06:09:17;13.93;;;8.33;;
17175;SDS011;8703;48.996;9.594;2022-09-21T06:11:45;12.30;;;8.90;;
17175;SDS011;8703;48.996;9.594;2022-09-21T06:14:13;12.63;;;9.20;;
17175;SDS011;8703;48.996;9.594;2022-09-21T06:16:41;13.93;;;8.57;;
17175;SDS011;8703;48.996;9.594;2022-09-21T06:19:09;15.37;;;11.47;;
17175;SDS011;8703;48.996;9.594;2022-09-21T06:21:39;11.73;;;9.13;;
17175;SDS011;8703;48.996;9.594;2022-09-21T06:24:06;8.90;;;6.97;;
17175;SDS011;8703;48.996;9.594;2022-09-21T06:26:34;9.57;;;6.73;;
17175;SDS011;8703;48.996;9.594;2022-09-21T06:29:01;9.23;;;6.20;;
17175;SDS011;8703;48.996;9.594;2022-09-21T06:31:29;6.50;;;3.90;;
17175;SDS011;8703;48.996;9.594;2022-09-21T06:33:58;5.47;;;3.87;;
17175;SDS011;8703;48.996;9.594;2022-09-21T06:36:26;7.47;;;4.70;;
17175;SDS011;8703;48.996;9.594;2022-09-21T06:38:55;7.53;;;5.37;;
17175;SDS011;8703;48.996;9.594;2022-09-21T06:41:22;12.43;;;4.97;;
17175;SDS011;8703;48.996;9.594;2022-09-21T06:43:52;11.97;;;5.30;;
17175;SDS011;8703;48.996;9.594;2022-09-21T06:46:20;9.10;;;5.70;;
17175;SDS011;8703;48.996;9.594;2022-09-21T06:48:48;9.70;;;6.67;;
17175;SDS011;8703;48.996;9.594;2022-09-21T06:51:15;7.07;;;5.70;;
17175;SDS011;8703;48.996;9.594;2022-09-21T06:53:44;9.43;;;7.03;;
17175;SDS011;8703;48.996;9.594;2022-09-21T06:56:13;9.30;;;6.73;;
17175;SDS011;8703;48.996;9.594;2022-09-21T06:58:41;7.77;;;5.60;;
17175;SDS011;8703;48.996;9.594;2022-09-21T07:01:10;11.10;;;5.63;;
17175;SDS011;8703;48.996;9.594;2022-09-21T07:03:38;6.33;;;4.50;;
17175;SDS011;8703;48.996;9.594;2022-09-21T07:06:06;7.23;;;4.80;;
17175;SDS011;8703;48.996;9.594;2022-09-21T07:08:35;6.80;;;4.70;;
17175;SDS011;8703;48.996;9.594;2022-09-21T07:11:04;8.43;;;5.30;;
17175;SDS011;8703;48.996;9.594;2022-09-21T07:13:33;8.67;;;5.47;;
17175;SDS011;8703;48.996;9.594;2022-09-21T07:16:02;8.57;;;5.57;;
17175;SDS011;8703;48.996;9.594;2022-09-21T07:18:31;9.73;;;5.40;;
17175;SDS011;8703;48.996;9.594;2022-09-21T07:21:00;7.73;;;5.73;;
17175;SDS011;8703;48.996;9.594;2022-09-21T07:23:28;6.43;;;4.73;;
17175;SDS011;8703;48.996;9.594;2022-09-21T07:25:59;8.47;;;5.43;;
17175;SDS011;8703;48.996;9.594;2022-09-21T07:28:27;8.60;;;5.57;;
17175;SDS011;8703;48.996;9.594;2022-09-21T07:30:56;8.10;;;5.20;;
17175;SDS011;8703;48.996;9.594;2022-09-21T07:33:24;7.73;;;5.63;;
17175;SDS011;8703;48.996;9.594;2022-09-21T07:35:52;9.27;;;6.20;;
17175;SDS011;8703;48.996;9.594;2022-09-21T07:38:20;10.87;;;7.07;;
17175;SDS011;8703;48.996;9.594;2022-09-21T07:40:48;12.90;;;8.60;;
17175;SDS011;8703;48.996;9.594;2022-09-21T07:43:16;10.10;;;5.27;;
17175;SDS011;8703;48.996;9.594;2022-09-21T07:45:50;8.90;;;4.70;;
17175;SDS011;8703;48.996;9.594;2022-09-21T07:48:20;6.87;;;4.87;;
17175;SDS011;8703;48.996;9.594;2022-09-21T07:50:47;8.87;;;5.93;;
17175;SDS011;8703;48.996;9.594;2022-09-21T07:53:15;6.53;;;4.93;;
17175;SDS011;8703;48.996;9.594;2022-09-21T07:55:42;6.93;;;4.73;;
17175;SDS011;8703;48.996;9.594;2022-09-21T07:58:10;6.07;;;4.97;;
17175;SDS011;8703;48.996;9.594;2022-09-21T08:00:55;9.13;;;5.27;;
17175;SDS011;8703;48.996;9.594;2022-09-21T08:03:23;8.23;;;5.70;;
17175;SDS011;8703;48.996;9.594;2022-09-21T08:05:51;8.47;;;6.00;;
17175;SDS011;8703;48.996;9.594;2022-09-21T08:08:18;8.27;;;5.53;;
17175;SDS011;8703;48.996;9.594;2022-09-21T08:10:45;7.67;;;5.43;;
17175;SDS011;8703;48.996;9.594;2022-09-21T08:13:13;7.33;;;5.07;;
17175;SDS011;8703;48.996;9.594;2022-09-21T08:15:40;5.90;;;4.07;;
17175;SDS011;8703;48.996;9.594;2022-09-21T08:18:07;7.37;;;5.00;;
17175;SDS011;8703;48.996;9.594;2022-09-21T08:20:36;8.57;;;2.60;;
17175;SDS011;8703;48.996;9.594;2022-09-21T08:23:03;2.10;;;1.73;;
17175;SDS011;8703;48.996;9.594;2022-09-21T08:25:31;3.30;;;1.90;;
17175;SDS011;8703;48.996;9.594;2022-09-21T08:27:58;2.97;;;1.50;;
17175;SDS011;8703;48.996;9.594;2022-09-21T08:30:26;4.17;;;1.57;;
17175;SDS011;8703;48.996;9.594;2022-09-21T08:32:55;2.13;;;1.30;;
17175;SDS011;8703;48.996;9.594;2022-09-21T08:35:22;3.83;;;1.20;;
17175;SDS011;8703;48.996;9.594;2022-09-21T08:37:53;2.30;;;1.30;;
17175;SDS011;8703;48.996;9.594;2022-09-21T08:40:20;1.20;;;1.10;;
17175;SDS011;8703;48.996;9.594;2022-09-21T08:42:51;3.93;;;1.10;;
17175;SDS011;8703;48.996;9.594;2022-09-21T08:45:21;2.73;;;1.60;;
17175;SDS011;8703;48.996;9.594;2022-09-21T08:47:52;3.97;;;1.97;;
17175;SDS011;8703;48.996;9.594;2022-09-21T08:50:24;2.50;;;1.20;;
17175;SDS011;8703;48.996;9.594;2022-09-21T08:52:57;1.83;;;0.90;;
17175;SDS011;8703;48.996;9.594;2022-09-21T08:55:28;2.03;;;0.67;;
17175;SDS011;8703;48.996;9.594;2022-09-21T08:57:55;1.03;;;0.83;;
17175;SDS011;8703;48.996;9.594;2022-09-21T09:00:23;5.27;;;0.90;;
17175;SDS011;8703;48.996;9.594;2022-09-21T09:03:03;2.70;;;0.90;;
17175;SDS011;8703;48.996;9.594;2022-09-21T09:05:43;3.77;;;0.80;;
17175;SDS011;8703;48.996;9.594;2022-09-21T09:11:08;0.70;;;0.60;;
17175;SDS011;8703;48.996;9.594;2022-09-21T09:13:49;1.17;;;0.60;;
17175;SDS011;8703;48.996;9.594;2022-09-21T09:16:25;0.60;;;0.60;;
17175;SDS011;8703;48.996;9.594;2022-09-21T09:18:56;4.77;;;0.87;;
17175;SDS011;8703;48.996;9.594;2022-09-21T09:21:28;0.73;;;0.60;;
17175;SDS011;8703;48.996;9.594;2022-09-21T09:24:01;2.30;;;0.70;;
17175;SDS011;8703;48.996;9.594;2022-09-21T09:26:32;2.43;;;0.80;;
17175;SDS011;8703;48.996;9.594;2022-09-21T09:29:06;1.17;;;0.60;;
17175;SDS011;8703;48.996;9.594;2022-09-21T09:31:39;2.10;;;0.80;;
17175;SDS011;8703;48.996;9.594;2022-09-21T09:34:08;2.73;;;0.60;;
17175;SDS011;8703;48.996;9.594;2022-09-21T09:36:38;2.83;;;0.80;;
17175;SDS011;8703;48.996;9.594;2022-09-21T09:39:11;0.97;;;0.50;;
17175;SDS011;8703;48.996;9.594;2022-09-21T09:41:49;2.43;;;0.77;;
17175;SDS011;8703;48.996;9.594;2022-09-21T09:44:39;1.60;;;0.80;;
17175;SDS011;8703;48.996;9.594;2022-09-21T09:47:33;1.37;;;0.67;;
17175;SDS011;8703;48.996;9.594;2022-09-21T09:50:08;1.47;;;0.60;;
17175;SDS011;8703;48.996;9.594;2022-09-21T09:52:37;1.77;;;0.80;;
17175;SDS011;8703;48.996;9.594;2022-09-21T09:55:13;1.07;;;0.53;;
17175;SDS011;8703;48.996;9.594;2022-09-21T09:57:44;0.70;;;0.50;;
17175;SDS011;8703;48.996;9.594;2022-09-21T10:00:12;1.40;;;0.60;;
17175;SDS011;8703;48.996;9.594;2022-09-21T10:02:50;2.03;;;0.53;;
17175;SDS011;8703;48.996;9.594;2022-09-21T10:05:20;2.03;;;0.60;;
17175;SDS011;8703;48.996;9.594;2022-09-21T10:07:48;2.47;;;0.70;;
17175;SDS011;8703;48.996;9.594;2022-09-21T10:10:30;2.27;;;0.80;;
17175;SDS011;8703;48.996;9.594;2022-09-21T10:13:05;0.80;;;0.80;;
17175;SDS011;8703;48.996;9.594;2022-09-21T10:15:44;3.23;;;0.80;;
17175;SDS011;8703;48.996;9.594;2022-09-21T10:18:19;1.57;;;0.80;;
17175;SDS011;8703;48.996;9.594;2022-09-21T10:20:54;1.53;;;0.77;;
17175;SDS011;8703;48.996;9.594;2022-09-21T10:23:23;2.30;;;0.70;;
17175;SDS011;8703;48.996;9.594;2022-09-21T10:25:53;2.00;;;0.73;;
17175;SDS011;8703;48.996;9.594;2022-09-21T10:28:22;2.40;;;0.90;;
17175;SDS011;8703;48.996;9.594;2022-09-21T10:30:49;1.40;;;0.93;;
17175;SDS011;8703;48.996;9.594;2022-09-21T10:33:42;2.67;;;1.00;;
17175;SDS011;8703;48.996;9.594;2022-09-21T10:36:24;1.67;;;0.80;;
17175;SDS011;8703;48.996;9.594;2022-09-21T10:38:53;1.67;;;1.20;;
17175;SDS011;8703;48.996;9.594;2022-09-21T10:41:22;1.63;;;1.00;;
17175;SDS011;8703;48.996;9.594;2022-09-21T10:43:49;2.63;;;1.00;;
17175;SDS011;8703;48.996;9.594;2022-09-21T10:46:30;2.03;;;0.90;;
17175;SDS011;8703;48.996;9.594;2022-09-21T10:48:59;1.97;;;0.90;;
17175;SDS011;8703;48.996;9.594;2022-09-21T10:51:27;2.20;;;0.80;;
17175;SDS011;8703;48.996;9.594;2022-09-21T10:53:55;1.07;;;0.70;;
17175;SDS011;8703;48.996;9.594;2022-09-21T10:56:25;2.33;;;0.90;;
17175;SDS011;8703;48.996;9.594;2022-09-21T10:59:08;1.53;;;0.90;;
17175;SDS011;8703;48.996;9.594;2022-09-21T11:01:41;3.37;;;0.90;;
17175;SDS011;8703;48.996;9.594;2022-09-21T11:04:11;2.40;;;1.00;;
17175;SDS011;8703;48.996;9.594;2022-09-21T11:06:42;2.40;;;0.77;;
17175;SDS011;8703;48.996;9.594;2022-09-21T11:09:12;1.90;;;0.70;;
17175;SDS011;8703;48.996;9.594;2022-09-21T11:11:47;2.27;;;0.90;;
17175;SDS011;8703;48.996;9.594;2022-09-21T11:14:24;0.90;;;0.60;;
17175;SDS011;8703;48.996;9.594;2022-09-21T11:17:02;2.90;;;0.80;;
17175;SDS011;8703;48.996;9.594;2022-09-21T11:19:34;1.07;;;0.97;;
17175;SDS011;8703;48.996;9.594;2022-09-21T11:22:10;1.27;;;0.93;;
17175;SDS011;8703;48.996;9.594;2022-09-21T11:24:45;2.37;;;0.87;;
17175;SDS011;8703;48.996;9.594;2022-09-21T11:27:18;2.07;;;0.93;;
17175;SDS011;8703;48.996;9.594;2022-09-21T11:29:51;2.63;;;0.90;;
17175;SDS011;8703;48.996;9.594;2022-09-21T11:32:33;1.67;;;0.90;;
17175;SDS011;8703;48.996;9.594;2022-09-21T11:38:08;1.60;;;0.90;;
17175;SDS011;8703;48.996;9.594;2022-09-21T11:40:41;1.40;;;0.70;;
17175;SDS011;8703;48.996;9.594;2022-09-21T11:43:31;1.25;;;0.80;;
17175;SDS011;8703;48.996;9.594;2022-09-21T11:46:07;1.90;;;0.80;;
17175;SDS011;8703;48.996;9.594;2022-09-21T11:48:48;2.53;;;1.00;;
17175;SDS011;8703;48.996;9.594;2022-09-21T11:51:25;1.00;;;0.80;;
17175;SDS011;8703;48.996;9.594;2022-09-21T11:54:14;1.75;;;0.93;;
17175;SDS011;8703;48.996;9.594;2022-09-21T11:57:07;2.22;;;1.08;;
17175;SDS011;8703;48.996;9.594;2022-09-21T11:59:47;1.88;;;1.05;;
17175;SDS011;8703;48.996;9.594;2022-09-21T12:05:34;3.15;;;1.10;;
17175;SDS011;8703;48.996;9.594;2022-09-21T12:08:18;2.15;;;1.05;;
17175;SDS011;8703;48.996;9.594;2022-09-21T12:10:59;1.42;;;1.25;;
17175;SDS011;8703;48.996;9.594;2022-09-21T12:13:32;2.78;;;1.40;;
17175;SDS011;8703;48.996;9.594;2022-09-21T12:18:52;1.88;;;1.38;;
17175;SDS011;8703;48.996;9.594;2022-09-21T12:21:24;1.90;;;1.10;;
17175;SDS011;8703;48.996;9.594;2022-09-21T12:23:53;2.58;;;0.90;;
17175;SDS011;8703;48.996;9.594;2022-09-21T12:26:22;2.93;;;0.90;;
17175;SDS011;8703;48.996;9.594;2022-09-21T12:28:53;0.80;;;0.80;;
17175;SDS011;8703;48.996;9.594;2022-09-21T12:31:28;0.93;;;0.80;;
17175;SDS011;8703;48.996;9.594;2022-09-21T12:33:57;3.10;;;0.90;;
17175;SDS011;8703;48.996;9.594;2022-09-21T12:36:30;0.80;;;0.60;;
17175;SDS011;8703;48.996;9.594;2022-09-21T12:39:02;1.98;;;0.90;;
17175;SDS011;8703;48.996;9.594;2022-09-21T12:41:36;1.95;;;0.90;;
17175;SDS011;8703;48.996;9.594;2022-09-21T12:44:11;1.08;;;0.80;;
17175;SDS011;8703;48.996;9.594;2022-09-21T12:46:44;2.53;;;0.90;;
17175;SDS011;8703;48.996;9.594;2022-09-21T12:49:14;1.48;;;0.80;;
17175;SDS011;8703;48.996;9.594;2022-09-21T12:51:45;1.65;;;0.80;;
17175;SDS011;8703;48.996;9.594;2022-09-21T12:54:16;1.05;;;0.70;;
17175;SDS011;8703;48.996;9.594;2022-09-21T12:56:50;1.50;;;0.80;;
17175;SDS011;8703;48.996;9.594;2022-09-21T12:59:24;1.70;;;0.90;;
17175;SDS011;8703;48.996;9.594;2022-09-21T13:01:57;1.48;;;0.82;;
17175;SDS011;8703;48.996;9.594;2022-09-21T13:04:38;1.35;;;0.82;;
17175;SDS011;8703;48.996;9.594;2022-09-21T13:07:20;2.25;;;0.98;;
17175;SDS011;8703;48.996;9.594;2022-09-21T13:10:12;1.60;;;0.70;;
17175;SDS011;8703;48.996;9.594;2022-09-21T13:12:42;1.35;;;0.90;;
17175;SDS011;8703;48.996;9.594;2022-09-21T13:15:12;0.95;;;0.70;;
17175;SDS011;8703;48.996;9.594;2022-09-21T13:17:44;2.45;;;0.90;;
17175;SDS011;8703;48.996;9.594;2022-09-21T13:20:15;2.97;;;1.02;;
17175;SDS011;8703;48.996;9.594;2022-09-21T13:22:43;1.60;;;0.90;;
17175;SDS011;8703;48.996;9.594;2022-09-21T13:25:19;1.38;;;1.00;;
17175;SDS011;8703;48.996;9.594;2022-09-21T13:27:58;2.10;;;1.05;;
17175;SDS011;8703;48.996;9.594;2022-09-21T13:30:37;1.30;;;0.80;;
17175;SDS011;8703;48.996;9.594;2022-09-21T13:39:03;1.30;;;0.90;;
17175;SDS011;8703;48.996;9.594;2022-09-21T13:41:40;1.50;;;0.88;;
17175;SDS011;8703;48.996;9.594;2022-09-21T13:44:17;1.38;;;0.70;;
17175;SDS011;8703;48.996;9.594;2022-09-21T13:46:48;0.80;;;0.80;;
17175;SDS011;8703;48.996;9.594;2022-09-21T13:49:24;1.00;;;0.82;;
17175;SDS011;8703;48.996;9.594;2022-09-21T13:51:58;1.63;;;0.90;;
17175;SDS011;8703;48.996;9.594;2022-09-21T13:54:27;1.13;;;0.70;;
17175;SDS011;8703;48.996;9.594;2022-09-21T13:56:59;1.20;;;0.82;;
17175;SDS011;8703;48.996;9.594;2022-09-21T13:59:31;1.15;;;0.60;;
17175;SDS011;8703;48.996;9.594;2022-09-21T14:02:00;2.38;;;0.95;;
17175;SDS011;8703;48.996;9.594;2022-09-21T14:04:30;0.82;;;0.60;;
17175;SDS011;8703;48.996;9.594;2022-09-21T14:07:01;2.50;;;0.85;;
17175;SDS011;8703;48.996;9.594;2022-09-21T14:09:31;1.40;;;0.90;;
17175;SDS011;8703;48.996;9.594;2022-09-21T14:12:07;1.92;;;1.00;;
17175;SDS011;8703;48.996;9.594;2022-09-21T14:14:37;1.10;;;0.80;;
17175;SDS011;8703;48.996;9.594;2022-09-21T14:17:32;1.55;;;0.80;;
17175;SDS011;8703;48.996;9.594;2022-09-21T14:20:00;1.75;;;0.77;;
17175;SDS011;8703;48.996;9.594;2022-09-21T14:28:11;1.15;;;1.00;;
17175;SDS011;8703;48.996;9.594;2022-09-21T14:30:46;1.10;;;0.73;;
17175;SDS011;8703;48.996;9.594;2022-09-21T14:33:19;1.75;;;0.80;;
17175;SDS011;8703;48.996;9.594;2022-09-21T14:35:53;1.13;;;0.85;;
17175;SDS011;8703;48.996;9.594;2022-09-21T14:38:22;1.25;;;0.70;;
17175;SDS011;8703;48.996;9.594;2022-09-21T14:40:51;1.00;;;0.90;;
17175;SDS011;8703;48.996;9.594;2022-09-21T14:43:23;0.90;;;0.63;;
17175;SDS011;8703;48.996;9.594;2022-09-21T14:45:59;0.70;;;0.70;;
17175;SDS011;8703;48.996;9.594;2022-09-21T14:48:47;0.65;;;0.60;;
17175;SDS011;8703;48.996;9.594;2022-09-21T14:51:23;0.93;;;0.63;;
17175;SDS011;8703;48.996;9.594;2022-09-21T14:54:06;1.52;;;0.70;;
17175;SDS011;8703;48.996;9.594;2022-09-21T14:56:43;0.88;;;0.60;;
17175;SDS011;8703;48.996;9.594;2022-09-21T14:59:24;0.85;;;0.70;;
17175;SDS011;8703;48.996;9.594;2022-09-21T15:02:00;1.67;;;0.75;;
17175;SDS011;8703;48.996;9.594;2022-09-21T15:04:43;1.67;;;0.82;;
17175;SDS011;8703;48.996;9.594;2022-09-21T15:07:36;1.15;;;0.70;;
17175;SDS011;8703;48.996;9.594;2022-09-21T15:10:25;0.98;;;0.65;;
17175;SDS011;8703;48.996;9.594;2022-09-21T15:13:17;0.90;;;0.70;;
17175;SDS011;8703;48.996;9.594;2022-09-21T15:16:13;1.27;;;0.73;;
17175;SDS011;8703;48.996;9.594;2022-09-21T15:18:46;3.03;;;0.80;;
17175;SDS011;8703;48.996;9.594;2022-09-21T15:21:19;1.52;;;0.60;;
17175;SDS011;8703;48.996;9.594;2022-09-21T15:23:49;1.58;;;0.70;;
17175;SDS011;8703;48.996;9.594;2022-09-21T15:26:18;1.20;;;0.70;;
17175;SDS011;8703;48.996;9.594;2022-09-21T15:28:48;1.30;;;0.80;;
17175;SDS011;8703;48.996;9.594;2022-09-21T15:31:18;1.20;;;0.60;;
17175;SDS011;8703;48.996;9.594;2022-09-21T15:33:46;0.75;;;0.60;;
17175;SDS011;8703;48.996;9.594;2022-09-21T15:36:18;0.60;;;0.60;;
17175;SDS011;8703;48.996;9.594;2022-09-21T15:38:47;1.10;;;0.70;;
17175;SDS011;8703;48.996;9.594;2022-09-21T15:44:05;2.20;;;0.80;;
17175;SDS011;8703;48.996;9.594;2022-09-21T15:46:40;0.70;;;0.60;;
17175;SDS011;8703;48.996;9.594;2022-09-21T15:49:12;0.70;;;0.68;;
17175;SDS011;8703;48.996;9.594;2022-09-21T15:51:42;1.75;;;1.00;;